This is the latest recevied weather packets stored in our database for station/object CA2JAT-13. If no packets are shown the sender has not sent any weather packets the latest 10 day(s).
| Time | Temp. | Humidity | Pressure | Rain* | Wind** | Luminosity | Snow |
|---|---|---|---|---|---|---|---|
| 1788595273 | 7.78° C | 90% | 1017.9 hPa | 0 mm | - | 0 W/m² | - |
| 1788593471 | 8.33° C | 88% | 1018.1 hPa | 0 mm | - | 0 W/m² | - |
| 1788591668 | 8.89° C | 89% | 1018.6 hPa | 0 mm | - | 0 W/m² | - |
| 1788589866 | 9.44° C | 85% | 1018.4 hPa | 0 mm | - | 0 W/m² | - |
| 1788586261 | 10° C | 84% | 1018.7 hPa | 0 mm | - | 0 W/m² | - |
| 1788584459 | 10.56° C | 82% | 1018.4 hPa | 0 mm | - | 0 W/m² | - |
| 1788561027 | 21.11° C | 37% | 1015.1 hPa | 0 mm | - | 17 W/m² | - |
| 1788557423 | 23.33° C | 30% | 1013.9 hPa | 0 mm | - | 281 W/m² | - |
| 1788553817 | 25.56° C | 26% | 1013.1 hPa | 0 mm | - | 498 W/m² | - |
| 1788550212 | 26.11° C | 25% | 1013.1 hPa | 0 mm | - | 630 W/m² | - |
| 1788548410 | 26.67° C | 23% | 1013 hPa | 0 mm | - | 740 W/m² | - |
| 1788546606 | 26.11° C | 23% | 1013.5 hPa | 0 mm | - | 802 W/m² | - |
| 1788542999 | 26.67° C | 19% | 1013.8 hPa | 0 mm | - | 840 W/m² | - |
| 1788539394 | 24.44° C | 24% | 1015.2 hPa | 0 mm | - | 827 W/m² | - |
| 1788537592 | 23.89° C | 27% | 1015.5 hPa | 0 mm | - | 813 W/m² | - |
| 1788535790 | 22.78° C | 30% | 1016.1 hPa | 0 mm | - | 773 W/m² | - |
| 1788532184 | 19.44° C | 38% | 1017.1 hPa | 0 mm | - | 648 W/m² | - |
| 1788524925 | 11.11° C | 69% | 1019.9 hPa | 0 mm | - | 244 W/m² | - |
| 1788523123 | 6.67° C | 94% | 1021.1 hPa | 0 mm | - | 15 W/m² | - |
| 1788521320 | 6.67° C | 92% | 1020.8 hPa | 0 mm | - | 0 W/m² | - |
| 1788519518 | 7.78° C | 85% | 1020.5 hPa | 0 mm | - | 0 W/m² | - |
| 1788517716 | 7.78° C | 90% | 1020.6 hPa | 0 mm | - | 0 W/m² | - |
| 1788514111 | 8.33° C | 93% | 1020.6 hPa | 0 mm | - | 0 W/m² | - |
| 1788512308 | 8.33° C | 93% | 1020.5 hPa | 0 mm | - | 0 W/m² | - |
| 1788510505 | 10° C | 81% | 1020.4 hPa | 0 mm | - | 0 W/m² | - |
* Rain latest hour (hover to see other rain measurements)
** Current wind speed in m/s (hover to see current wind gust speed)